sensor_id;sensor_type;location;lat;lon;timestamp;pressure;altitude;pressure_sealevel;temperature;humidity
41947;BME280;27638;42.184;24.848;2023-02-02T00:01:38;99926.81;;;6.32;53.72
41947;BME280;27638;42.184;24.848;2023-02-02T00:04:04;99937.38;;;6.21;54.16
41947;BME280;27638;42.184;24.848;2023-02-02T00:06:30;99937.28;;;5.70;55.05
41947;BME280;27638;42.184;24.848;2023-02-02T00:08:57;99939.13;;;5.79;55.37
41947;BME280;27638;42.184;24.848;2023-02-02T00:11:24;99941.13;;;5.87;55.45
41947;BME280;27638;42.184;24.848;2023-02-02T00:13:49;99944.31;;;5.69;55.91
41947;BME280;27638;42.184;24.848;2023-02-02T00:19:00;99937.69;;;5.54;57.50
41947;BME280;27638;42.184;24.848;2023-02-02T00:21:27;99945.03;;;5.39;58.18
41947;BME280;27638;42.184;24.848;2023-02-02T00:23:52;99942.44;;;5.28;58.46
41947;BME280;27638;42.184;24.848;2023-02-02T00:26:18;99957.47;;;5.26;58.91
41947;BME280;27638;42.184;24.848;2023-02-02T00:28:43;99945.28;;;5.36;58.62
41947;BME280;27638;42.184;24.848;2023-02-02T00:31:09;99946.81;;;5.39;58.50
41947;BME280;27638;42.184;24.848;2023-02-02T00:33:34;99943.59;;;5.35;59.05
41947;BME280;27638;42.184;24.848;2023-02-02T00:36:00;99940.34;;;5.43;58.71
41947;BME280;27638;42.184;24.848;2023-02-02T00:38:25;99947.06;;;5.36;59.04
41947;BME280;27638;42.184;24.848;2023-02-02T00:40:51;99954.00;;;5.37;58.69
41947;BME280;27638;42.184;24.848;2023-02-02T00:43:16;99947.66;;;5.39;58.43
41947;BME280;27638;42.184;24.848;2023-02-02T00:45:42;99964.25;;;5.40;58.77
41947;BME280;27638;42.184;24.848;2023-02-02T00:48:07;99950.50;;;5.48;58.82
41947;BME280;27638;42.184;24.848;2023-02-02T00:50:35;99945.19;;;5.59;58.88
41947;BME280;27638;42.184;24.848;2023-02-02T00:53:00;99941.56;;;5.39;59.27
41947;BME280;27638;42.184;24.848;2023-02-02T00:55:26;99953.63;;;5.73;58.83
41947;BME280;27638;42.184;24.848;2023-02-02T00:57:52;99948.78;;;5.90;57.69
41947;BME280;27638;42.184;24.848;2023-02-02T01:00:20;99952.34;;;5.89;57.54
41947;BME280;27638;42.184;24.848;2023-02-02T01:02:51;99944.25;;;5.92;57.31
41947;BME280;27638;42.184;24.848;2023-02-02T01:05:17;99931.69;;;5.95;57.34
41947;BME280;27638;42.184;24.848;2023-02-02T01:07:43;99939.50;;;6.06;56.59
41947;BME280;27638;42.184;24.848;2023-02-02T01:10:12;99934.31;;;6.16;57.04
41947;BME280;27638;42.184;24.848;2023-02-02T01:12:39;99935.44;;;6.23;55.82
41947;BME280;27638;42.184;24.848;2023-02-02T01:15:05;99944.44;;;6.21;56.15
41947;BME280;27638;42.184;24.848;2023-02-02T01:17:30;99950.75;;;6.29;56.23
41947;BME280;27638;42.184;24.848;2023-02-02T01:19:56;99949.38;;;6.35;56.18
41947;BME280;27638;42.184;24.848;2023-02-02T01:22:21;99947.59;;;6.35;56.39
41947;BME280;27638;42.184;24.848;2023-02-02T01:24:47;99955.31;;;6.27;56.74
41947;BME280;27638;42.184;24.848;2023-02-02T01:27:12;99951.97;;;6.25;55.91
41947;BME280;27638;42.184;24.848;2023-02-02T01:29:37;99955.06;;;6.19;56.17
41947;BME280;27638;42.184;24.848;2023-02-02T01:32:03;99952.25;;;6.11;55.79
41947;BME280;27638;42.184;24.848;2023-02-02T01:34:29;99959.56;;;6.07;55.04
41947;BME280;27638;42.184;24.848;2023-02-02T01:36:54;99958.22;;;6.13;55.15
41947;BME280;27638;42.184;24.848;2023-02-02T01:39:20;99956.50;;;6.23;54.79
41947;BME280;27638;42.184;24.848;2023-02-02T01:41:45;99956.72;;;6.31;54.31
41947;BME280;27638;42.184;24.848;2023-02-02T01:47:14;99950.28;;;6.24;54.42
41947;BME280;27638;42.184;24.848;2023-02-02T01:49:40;99945.41;;;6.20;54.25
41947;BME280;27638;42.184;24.848;2023-02-02T01:52:06;99947.28;;;6.29;54.52
41947;BME280;27638;42.184;24.848;2023-02-02T01:54:37;99939.69;;;6.35;54.77
41947;BME280;27638;42.184;24.848;2023-02-02T01:57:12;99942.38;;;6.45;54.56
41947;BME280;27638;42.184;24.848;2023-02-02T01:59:40;99942.00;;;6.50;53.77
41947;BME280;27638;42.184;24.848;2023-02-02T02:02:06;99946.28;;;6.51;54.39
41947;BME280;27638;42.184;24.848;2023-02-02T02:04:33;99940.63;;;6.55;53.83
41947;BME280;27638;42.184;24.848;2023-02-02T02:06:59;99949.34;;;6.56;54.74
41947;BME280;27638;42.184;24.848;2023-02-02T02:09:25;99948.66;;;6.54;54.60
41947;BME280;27638;42.184;24.848;2023-02-02T02:11:52;99946.72;;;6.56;54.76
41947;BME280;27638;42.184;24.848;2023-02-02T02:14:18;99955.19;;;6.59;54.35
41947;BME280;27638;42.184;24.848;2023-02-02T02:17:07;99955.81;;;6.72;53.84
41947;BME280;27638;42.184;24.848;2023-02-02T02:39:56;99944.38;;;6.32;55.40
41947;BME280;27638;42.184;24.848;2023-02-02T02:42:27;99943.88;;;6.38;54.84
41947;BME280;27638;42.184;24.848;2023-02-02T02:44:56;99947.59;;;6.35;54.83
41947;BME280;27638;42.184;24.848;2023-02-02T02:47:28;99949.25;;;6.36;54.86
41947;BME280;27638;42.184;24.848;2023-02-02T02:49:54;99947.66;;;6.45;55.41
41947;BME280;27638;42.184;24.848;2023-02-02T02:52:19;99940.72;;;6.44;54.82
41947;BME280;27638;42.184;24.848;2023-02-02T02:54:50;99938.59;;;6.38;55.20
41947;BME280;27638;42.184;24.848;2023-02-02T03:00:46;99933.66;;;6.24;55.84
41947;BME280;27638;42.184;24.848;2023-02-02T03:03:47;99930.41;;;6.31;55.31
41947;BME280;27638;42.184;24.848;2023-02-02T03:08:44;99928.47;;;6.33;55.99
41947;BME280;27638;42.184;24.848;2023-02-02T03:11:13;99930.41;;;6.31;55.80
41947;BME280;27638;42.184;24.848;2023-02-02T03:13:40;99936.06;;;6.27;55.57
41947;BME280;27638;42.184;24.848;2023-02-02T03:16:07;99937.03;;;6.26;55.72
41947;BME280;27638;42.184;24.848;2023-02-02T03:18:33;99940.66;;;6.34;55.52
41947;BME280;27638;42.184;24.848;2023-02-02T03:20:59;99939.56;;;6.37;55.12
41947;BME280;27638;42.184;24.848;2023-02-02T03:23:24;99941.94;;;6.40;55.06
41947;BME280;27638;42.184;24.848;2023-02-02T03:25:50;99941.25;;;6.38;55.72
41947;BME280;27638;42.184;24.848;2023-02-02T03:28:16;99945.00;;;6.45;55.31
41947;BME280;27638;42.184;24.848;2023-02-02T03:30:43;99937.44;;;6.52;55.63
41947;BME280;27638;42.184;24.848;2023-02-02T03:33:12;99928.75;;;6.61;55.16
41947;BME280;27638;42.184;24.848;2023-02-02T03:35:38;99928.34;;;6.65;54.87
41947;BME280;27638;42.184;24.848;2023-02-02T03:38:04;99926.56;;;6.66;54.58
41947;BME280;27638;42.184;24.848;2023-02-02T03:40:29;99928.88;;;6.59;54.22
41947;BME280;27638;42.184;24.848;2023-02-02T03:42:55;99924.97;;;6.54;54.85
41947;BME280;27638;42.184;24.848;2023-02-02T03:45:21;99919.09;;;6.40;54.56
41947;BME280;27638;42.184;24.848;2023-02-02T03:47:46;99922.13;;;6.36;55.31
41947;BME280;27638;42.184;24.848;2023-02-02T03:50:12;99916.56;;;6.29;55.63
41947;BME280;27638;42.184;24.848;2023-02-02T03:52:37;99913.00;;;6.19;55.56
41947;BME280;27638;42.184;24.848;2023-02-02T03:55:03;99919.44;;;6.26;56.09
41947;BME280;27638;42.184;24.848;2023-02-02T03:57:29;99910.06;;;6.33;56.34
41947;BME280;27638;42.184;24.848;2023-02-02T03:59:55;99914.75;;;6.30;56.24
41947;BME280;27638;42.184;24.848;2023-02-02T04:02:20;99915.72;;;6.29;55.87
41947;BME280;27638;42.184;24.848;2023-02-02T04:04:46;99909.75;;;6.27;55.59
41947;BME280;27638;42.184;24.848;2023-02-02T04:07:12;99911.88;;;6.12;56.57
41947;BME280;27638;42.184;24.848;2023-02-02T04:09:38;99908.53;;;6.10;56.68
41947;BME280;27638;42.184;24.848;2023-02-02T04:12:03;99917.78;;;6.04;56.44
41947;BME280;27638;42.184;24.848;2023-02-02T04:14:28;99906.63;;;5.91;57.45
41947;BME280;27638;42.184;24.848;2023-02-02T04:16:54;99914.25;;;5.94;57.67
41947;BME280;27638;42.184;24.848;2023-02-02T04:19:19;99920.06;;;5.98;57.22
41947;BME280;27638;42.184;24.848;2023-02-02T04:21:45;99919.69;;;6.02;57.43
41947;BME280;27638;42.184;24.848;2023-02-02T04:24:11;99919.44;;;6.05;57.17
41947;BME280;27638;42.184;24.848;2023-02-02T04:26:37;99912.00;;;6.11;57.25
41947;BME280;27638;42.184;24.848;2023-02-02T04:29:02;99916.81;;;6.05;57.14
41947;BME280;27638;42.184;24.848;2023-02-02T04:31:28;99914.88;;;6.07;57.37
41947;BME280;27638;42.184;24.848;2023-02-02T04:33:57;99918.59;;;6.05;57.82
41947;BME280;27638;42.184;24.848;2023-02-02T04:36:23;99913.84;;;5.99;57.16
41947;BME280;27638;42.184;24.848;2023-02-02T04:38:50;99915.22;;;5.93;57.54
41947;BME280;27638;42.184;24.848;2023-02-02T04:41:16;99920.38;;;5.84;57.97
41947;BME280;27638;42.184;24.848;2023-02-02T04:43:43;99926.63;;;5.71;58.20
41947;BME280;27638;42.184;24.848;2023-02-02T04:46:09;99918.31;;;5.66;58.49
41947;BME280;27638;42.184;24.848;2023-02-02T04:48:34;99920.34;;;5.63;58.54
41947;BME280;27638;42.184;24.848;2023-02-02T04:51:02;99923.34;;;5.58;59.10
41947;BME280;27638;42.184;24.848;2023-02-02T04:53:28;99930.91;;;5.52;59.05
41947;BME280;27638;42.184;24.848;2023-02-02T04:55:54;99933.78;;;5.49;59.71
41947;BME280;27638;42.184;24.848;2023-02-02T04:58:19;99935.22;;;5.41;59.69
41947;BME280;27638;42.184;24.848;2023-02-02T05:00:45;99932.53;;;5.32;60.48
41947;BME280;27638;42.184;24.848;2023-02-02T05:03:10;99936.81;;;5.33;59.87
41947;BME280;27638;42.184;24.848;2023-02-02T05:05:36;99938.47;;;5.34;59.88
41947;BME280;27638;42.184;24.848;2023-02-02T05:08:01;99947.56;;;5.30;60.16
41947;BME280;27638;42.184;24.848;2023-02-02T05:10:27;99948.41;;;5.30;60.45
41947;BME280;27638;42.184;24.848;2023-02-02T05:12:53;99951.03;;;5.30;60.80
41947;BME280;27638;42.184;24.848;2023-02-02T05:15:19;99951.38;;;5.26;60.27
41947;BME280;27638;42.184;24.848;2023-02-02T05:17:45;99955.09;;;5.23;61.04
41947;BME280;27638;42.184;24.848;2023-02-02T05:20:11;99956.38;;;5.18;60.56
41947;BME280;27638;42.184;24.848;2023-02-02T05:22:37;99964.16;;;5.19;60.70
41947;BME280;27638;42.184;24.848;2023-02-02T05:25:03;99966.69;;;5.21;60.64
41947;BME280;27638;42.184;24.848;2023-02-02T05:27:29;99968.81;;;5.27;60.43
41947;BME280;27638;42.184;24.848;2023-02-02T05:29:54;99972.50;;;5.35;60.01
41947;BME280;27638;42.184;24.848;2023-02-02T05:32:20;99970.22;;;5.42;60.43
41947;BME280;27638;42.184;24.848;2023-02-02T05:34:45;99974.38;;;5.44;59.38
41947;BME280;27638;42.184;24.848;2023-02-02T05:37:10;99966.28;;;5.36;59.56
41947;BME280;27638;42.184;24.848;2023-02-02T05:39:36;99972.00;;;5.41;59.53
41947;BME280;27638;42.184;24.848;2023-02-02T05:42:01;99978.78;;;5.44;59.69
41947;BME280;27638;42.184;24.848;2023-02-02T05:44:27;99976.28;;;5.42;59.46
41947;BME280;27638;42.184;24.848;2023-02-02T05:46:52;99980.34;;;5.47;59.22
41947;BME280;27638;42.184;24.848;2023-02-02T05:49:18;99985.31;;;5.61;59.46
41947;BME280;27638;42.184;24.848;2023-02-02T05:51:48;99987.31;;;5.68;58.75
41947;BME280;27638;42.184;24.848;2023-02-02T05:54:14;99989.81;;;5.70;58.61
41947;BME280;27638;42.184;24.848;2023-02-02T05:56:44;99987.78;;;5.73;58.70
41947;BME280;27638;42.184;24.848;2023-02-02T05:59:09;99981.81;;;5.71;58.54
41947;BME280;27638;42.184;24.848;2023-02-02T06:01:35;99984.66;;;5.80;59.11
41947;BME280;27638;42.184;24.848;2023-02-02T06:04:00;99988.44;;;5.87;58.49
41947;BME280;27638;42.184;24.848;2023-02-02T06:06:26;99990.84;;;5.90;57.73
41947;BME280;27638;42.184;24.848;2023-02-02T06:08:51;99982.72;;;5.93;57.56
41947;BME280;27638;42.184;24.848;2023-02-02T06:11:17;99982.84;;;5.80;58.74
41947;BME280;27638;42.184;24.848;2023-02-02T06:13:43;99984.41;;;5.83;58.39
41947;BME280;27638;42.184;24.848;2023-02-02T06:16:09;99992.84;;;5.86;59.11
41947;BME280;27638;42.184;24.848;2023-02-02T06:18:35;99990.00;;;5.89;58.99
41947;BME280;27638;42.184;24.848;2023-02-02T06:21:03;99987.97;;;5.82;58.86
41947;BME280;27638;42.184;24.848;2023-02-02T06:23:31;99991.19;;;5.85;59.56
41947;BME280;27638;42.184;24.848;2023-02-02T06:25:57;99998.94;;;5.87;59.15
41947;BME280;27638;42.184;24.848;2023-02-02T06:28:22;100001.34;;;5.90;58.87
41947;BME280;27638;42.184;24.848;2023-02-02T06:30:48;100003.03;;;5.91;59.24
41947;BME280;27638;42.184;24.848;2023-02-02T06:33:13;100011.63;;;5.93;58.98
41947;BME280;27638;42.184;24.848;2023-02-02T06:35:39;100006.22;;;5.94;59.17
41947;BME280;27638;42.184;24.848;2023-02-02T06:38:04;100011.03;;;5.89;59.03
41947;BME280;27638;42.184;24.848;2023-02-02T06:40:29;100017.84;;;5.92;58.79
41947;BME280;27638;42.184;24.848;2023-02-02T06:43:00;100019.13;;;5.97;59.39
41947;BME280;27638;42.184;24.848;2023-02-02T06:45:27;100017.91;;;6.01;59.28
41947;BME280;27638;42.184;24.848;2023-02-02T06:47:53;100012.84;;;6.09;59.35
41947;BME280;27638;42.184;24.848;2023-02-02T06:50:18;100008.72;;;6.28;58.36
41947;BME280;27638;42.184;24.848;2023-02-02T06:52:51;100008.00;;;6.47;58.05
41947;BME280;27638;42.184;24.848;2023-02-02T06:55:17;100008.81;;;6.68;57.21
41947;BME280;27638;42.184;24.848;2023-02-02T06:57:42;100017.22;;;6.83;56.91
41947;BME280;27638;42.184;24.848;2023-02-02T07:00:09;100011.63;;;7.07;56.71
41947;BME280;27638;42.184;24.848;2023-02-02T07:02:34;100009.31;;;7.23;55.80
41947;BME280;27638;42.184;24.848;2023-02-02T07:05:00;100012.28;;;7.29;55.35
41947;BME280;27638;42.184;24.848;2023-02-02T07:07:26;100016.03;;;7.36;55.36
41947;BME280;27638;42.184;24.848;2023-02-02T07:09:51;100016.59;;;7.40;55.25
41947;BME280;27638;42.184;24.848;2023-02-02T07:12:17;100018.84;;;7.54;54.63
41947;BME280;27638;42.184;24.848;2023-02-02T07:14:44;100019.72;;;7.64;54.25
41947;BME280;27638;42.184;24.848;2023-02-02T07:17:09;100027.50;;;7.76;54.35
41947;BME280;27638;42.184;24.848;2023-02-02T07:19:35;100016.41;;;7.91;53.55
41947;BME280;27638;42.184;24.848;2023-02-02T07:22:00;100010.56;;;8.07;53.60
41947;BME280;27638;42.184;24.848;2023-02-02T07:24:26;100015.56;;;8.10;53.40
41947;BME280;27638;42.184;24.848;2023-02-02T07:26:52;100015.84;;;7.97;53.38
41947;BME280;27638;42.184;24.848;2023-02-02T07:29:17;100022.38;;;8.03;52.81
41947;BME280;27638;42.184;24.848;2023-02-02T07:31:43;100024.31;;;8.11;53.46
41947;BME280;27638;42.184;24.848;2023-02-02T07:34:08;100030.97;;;8.24;52.70
41947;BME280;27638;42.184;24.848;2023-02-02T07:36:34;100030.03;;;8.45;52.67
41947;BME280;27638;42.184;24.848;2023-02-02T07:39:00;100035.56;;;8.51;52.46
41947;BME280;27638;42.184;24.848;2023-02-02T07:41:28;100032.34;;;8.67;52.34
41947;BME280;27638;42.184;24.848;2023-02-02T07:43:53;100033.13;;;8.87;52.31
41947;BME280;27638;42.184;24.848;2023-02-02T07:46:19;100041.69;;;8.99;51.75
41947;BME280;27638;42.184;24.848;2023-02-02T07:48:45;100034.47;;;9.01;51.13
41947;BME280;27638;42.184;24.848;2023-02-02T07:51:15;100035.50;;;9.17;51.36
41947;BME280;27638;42.184;24.848;2023-02-02T07:53:46;100035.34;;;9.19;50.40
41947;BME280;27638;42.184;24.848;2023-02-02T07:56:23;100033.75;;;9.36;51.18
41947;BME280;27638;42.184;24.848;2023-02-02T07:58:51;100020.69;;;9.34;51.03
41947;BME280;27638;42.184;24.848;2023-02-02T08:01:17;100022.31;;;9.45;51.16
41947;BME280;27638;42.184;24.848;2023-02-02T08:03:44;100016.88;;;9.46;51.30
41947;BME280;27638;42.184;24.848;2023-02-02T08:06:26;100024.81;;;9.46;49.64
41947;BME280;27638;42.184;24.848;2023-02-02T08:08:57;100027.72;;;9.16;49.13
41947;BME280;27638;42.184;24.848;2023-02-02T08:11:24;100021.31;;;9.18;48.73
41947;BME280;27638;42.184;24.848;2023-02-02T08:13:52;100029.69;;;9.14;49.16
41947;BME280;27638;42.184;24.848;2023-02-02T08:16:18;100022.72;;;9.13;49.59
41947;BME280;27638;42.184;24.848;2023-02-02T08:18:44;100015.09;;;9.10;49.53
41947;BME280;27638;42.184;24.848;2023-02-02T08:21:10;100024.28;;;9.06;49.89
41947;BME280;27638;42.184;24.848;2023-02-02T08:23:37;100019.91;;;9.24;50.06
41947;BME280;27638;42.184;24.848;2023-02-02T08:26:10;100012.91;;;9.33;49.61
41947;BME280;27638;42.184;24.848;2023-02-02T08:28:36;100009.28;;;9.34;49.36
41947;BME280;27638;42.184;24.848;2023-02-02T08:33:30;100009.50;;;9.50;49.32
41947;BME280;27638;42.184;24.848;2023-02-02T08:35:56;100004.53;;;9.65;49.08
41947;BME280;27638;42.184;24.848;2023-02-02T08:38:22;100000.91;;;9.83;48.92
41947;BME280;27638;42.184;24.848;2023-02-02T08:40:48;100004.53;;;10.00;47.73
41947;BME280;27638;42.184;24.848;2023-02-02T08:43:13;99990.84;;;10.05;47.15
41947;BME280;27638;42.184;24.848;2023-02-02T08:45:42;99985.47;;;10.14;47.01
41947;BME280;27638;42.184;24.848;2023-02-02T08:48:07;99990.31;;;10.19;45.88
41947;BME280;27638;42.184;24.848;2023-02-02T08:50:32;99988.44;;;10.29;46.41
41947;BME280;27638;42.184;24.848;2023-02-02T08:52:58;99987.81;;;10.35;46.59
41947;BME280;27638;42.184;24.848;2023-02-02T08:55:23;99976.69;;;10.32;45.79
41947;BME280;27638;42.184;24.848;2023-02-02T08:57:49;99983.19;;;10.37;45.95
41947;BME280;27638;42.184;24.848;2023-02-02T09:00:14;99983.78;;;10.49;46.82
41947;BME280;27638;42.184;24.848;2023-02-02T09:02:40;99985.81;;;10.55;46.25
41947;BME280;27638;42.184;24.848;2023-02-02T09:05:06;99983.91;;;10.65;46.52
41947;BME280;27638;42.184;24.848;2023-02-02T09:07:31;99980.97;;;10.76;45.12
41947;BME280;27638;42.184;24.848;2023-02-02T09:09:57;99981.91;;;10.67;43.08
41947;BME280;27638;42.184;24.848;2023-02-02T09:12:23;99979.28;;;10.67;42.89
41947;BME280;27638;42.184;24.848;2023-02-02T09:14:49;99974.53;;;10.79;43.14
41947;BME280;27638;42.184;24.848;2023-02-02T09:17:14;99972.75;;;10.87;43.30
41947;BME280;27638;42.184;24.848;2023-02-02T09:19:40;99976.13;;;10.98;43.46
41947;BME280;27638;42.184;24.848;2023-02-02T09:22:05;99966.34;;;10.98;42.36
41947;BME280;27638;42.184;24.848;2023-02-02T09:24:30;99965.19;;;11.01;41.51
41947;BME280;27638;42.184;24.848;2023-02-02T09:26:56;99957.59;;;11.06;42.42
41947;BME280;27638;42.184;24.848;2023-02-02T09:29:21;99958.78;;;11.11;42.75
41947;BME280;27638;42.184;24.848;2023-02-02T09:31:47;99946.69;;;11.09;42.74
41947;BME280;27638;42.184;24.848;2023-02-02T09:34:13;99937.78;;;11.18;43.24
41947;BME280;27638;42.184;24.848;2023-02-02T09:36:40;99937.28;;;11.23;43.02
41947;BME280;27638;42.184;24.848;2023-02-02T09:39:06;99925.84;;;11.22;42.80
41947;BME280;27638;42.184;24.848;2023-02-02T09:41:52;99921.91;;;11.34;43.49
41947;BME280;27638;42.184;24.848;2023-02-02T09:52:14;99909.97;;;11.38;40.53
41947;BME280;27638;42.184;24.848;2023-02-02T09:54:43;99904.88;;;11.45;40.18
41947;BME280;27638;42.184;24.848;2023-02-02T09:57:21;99908.50;;;11.44;40.01
41947;BME280;27638;42.184;24.848;2023-02-02T09:59:49;99902.53;;;11.42;40.86
41947;BME280;27638;42.184;24.848;2023-02-02T10:02:48;99884.78;;;11.42;40.41
41947;BME280;27638;42.184;24.848;2023-02-02T10:05:12;99879.66;;;11.33;40.22
41947;BME280;27638;42.184;24.848;2023-02-02T10:07:43;99874.88;;;11.44;41.02
41947;BME280;27638;42.184;24.848;2023-02-02T10:10:26;99869.44;;;11.54;41.51
41947;BME280;27638;42.184;24.848;2023-02-02T10:15:44;99852.34;;;11.65;40.23
41947;BME280;27638;42.184;24.848;2023-02-02T10:18:32;99849.38;;;11.60;38.74
41947;BME280;27638;42.184;24.848;2023-02-02T10:21:09;99847.88;;;11.57;38.04
41947;BME280;27638;42.184;24.848;2023-02-02T10:23:38;99845.22;;;11.65;39.64
41947;BME280;27638;42.184;24.848;2023-02-02T10:31:17;99841.41;;;11.76;37.49
41947;BME280;27638;42.184;24.848;2023-02-02T10:34:15;99835.63;;;11.80;37.84
41947;BME280;27638;42.184;24.848;2023-02-02T10:45:32;99828.47;;;11.97;37.09
41947;BME280;27638;42.184;24.848;2023-02-02T10:47:58;99818.19;;;11.94;35.92
41947;BME280;27638;42.184;24.848;2023-02-02T10:50:23;99819.84;;;11.95;36.35
41947;BME280;27638;42.184;24.848;2023-02-02T10:53:00;99809.09;;;11.80;36.44
41947;BME280;27638;42.184;24.848;2023-02-02T10:55:37;99812.72;;;11.96;37.53
41947;BME280;27638;42.184;24.848;2023-02-02T11:00:51;99795.25;;;12.18;36.68
41947;BME280;27638;42.184;24.848;2023-02-02T11:03:21;99797.91;;;12.18;36.47
41947;BME280;27638;42.184;24.848;2023-02-02T11:05:47;99797.69;;;12.27;37.67
41947;BME280;27638;42.184;24.848;2023-02-02T11:08:37;99774.94;;;12.33;36.63
41947;BME280;27638;42.184;24.848;2023-02-02T11:11:22;99779.94;;;12.28;36.78
41947;BME280;27638;42.184;24.848;2023-02-02T11:13:59;99777.19;;;12.13;37.18
41947;BME280;27638;42.184;24.848;2023-02-02T11:16:30;99766.38;;;12.14;36.95
41947;BME280;27638;42.184;24.848;2023-02-02T11:18:56;99773.81;;;12.27;36.66
41947;BME280;27638;42.184;24.848;2023-02-02T11:21:32;99761.50;;;12.34;35.77
41947;BME280;27638;42.184;24.848;2023-02-02T11:24:04;99750.00;;;12.42;36.24
41947;BME280;27638;42.184;24.848;2023-02-02T11:29:17;99745.69;;;12.41;36.12
41947;BME280;27638;42.184;24.848;2023-02-02T11:31:45;99734.41;;;12.39;35.58
41947;BME280;27638;42.184;24.848;2023-02-02T11:34:20;99732.91;;;12.44;36.09
41947;BME280;27638;42.184;24.848;2023-02-02T11:37:19;99733.91;;;12.43;35.56
41947;BME280;27638;42.184;24.848;2023-02-02T11:39:45;99717.66;;;12.38;35.02
41947;BME280;27638;42.184;24.848;2023-02-02T11:42:21;99715.94;;;12.54;35.55
41947;BME280;27638;42.184;24.848;2023-02-02T11:44:50;99718.72;;;12.60;35.14
41947;BME280;27638;42.184;24.848;2023-02-02T11:47:31;99707.53;;;12.73;34.90
41947;BME280;27638;42.184;24.848;2023-02-02T11:49:59;99703.50;;;12.77;34.20
41947;BME280;27638;42.184;24.848;2023-02-02T11:52:27;99701.44;;;12.64;33.38
41947;BME280;27638;42.184;24.848;2023-02-02T11:54:55;99691.50;;;12.58;33.05
41947;BME280;27638;42.184;24.848;2023-02-02T11:57:24;99696.47;;;12.61;33.72
41947;BME280;27638;42.184;24.848;2023-02-02T12:00:10;99694.13;;;12.66;33.71
41947;BME280;27638;42.184;24.848;2023-02-02T12:02:45;99681.72;;;12.82;33.01
41947;BME280;27638;42.184;24.848;2023-02-02T12:07:37;99675.88;;;12.86;32.03
41947;BME280;27638;42.184;24.848;2023-02-02T12:17:43;99673.44;;;12.54;31.96
41947;BME280;27638;42.184;24.848;2023-02-02T12:20:42;99676.28;;;12.52;32.45
41947;BME280;27638;42.184;24.848;2023-02-02T12:23:30;99671.69;;;12.38;32.04
41947;BME280;27638;42.184;24.848;2023-02-02T12:26:28;99662.38;;;12.42;32.42
41947;BME280;27638;42.184;24.848;2023-02-02T12:51:18;99671.75;;;12.61;32.63
41947;BME280;27638;42.184;24.848;2023-02-02T12:59:53;99667.78;;;12.57;32.04
41947;BME280;27638;42.184;24.848;2023-02-02T13:02:42;99677.34;;;12.66;32.83
41947;BME280;27638;42.184;24.848;2023-02-02T13:08:11;99664.06;;;12.66;31.89
41947;BME280;27638;42.184;24.848;2023-02-02T13:10:46;99662.22;;;12.66;32.44
41947;BME280;27638;42.184;24.848;2023-02-02T13:13:16;99655.44;;;12.64;31.71
41947;BME280;27638;42.184;24.848;2023-02-02T13:15:47;99664.31;;;12.56;32.08
41947;BME280;27638;42.184;24.848;2023-02-02T13:18:19;99653.22;;;12.44;32.24
41947;BME280;27638;42.184;24.848;2023-02-02T13:20:51;99644.19;;;12.31;31.79
41947;BME280;27638;42.184;24.848;2023-02-02T13:23:29;99647.63;;;12.39;32.57
41947;BME280;27638;42.184;24.848;2023-02-02T13:26:18;99654.06;;;12.45;32.44
41947;BME280;27638;42.184;24.848;2023-02-02T13:31:41;99638.94;;;12.45;32.79
41947;BME280;27638;42.184;24.848;2023-02-02T13:34:20;99643.50;;;12.37;32.14
41947;BME280;27638;42.184;24.848;2023-02-02T13:36:53;99643.38;;;12.30;32.47
41947;BME280;27638;42.184;24.848;2023-02-02T13:39:31;99643.81;;;12.11;32.96
41947;BME280;27638;42.184;24.848;2023-02-02T13:41:59;99643.09;;;12.17;33.55
41947;BME280;27638;42.184;24.848;2023-02-02T13:44:37;99642.28;;;12.17;33.08
41947;BME280;27638;42.184;24.848;2023-02-02T13:47:15;99642.75;;;12.20;33.23
41947;BME280;27638;42.184;24.848;2023-02-02T13:49:48;99627.19;;;12.17;33.11
41947;BME280;27638;42.184;24.848;2023-02-02T14:03:26;99620.03;;;12.18;31.79
41947;BME280;27638;42.184;24.848;2023-02-02T14:06:14;99633.97;;;11.89;35.04
41947;BME280;27638;42.184;24.848;2023-02-02T14:11:19;99650.72;;;11.09;42.79
41947;BME280;27638;42.184;24.848;2023-02-02T14:13:48;99671.44;;;10.73;44.22
41947;BME280;27638;42.184;24.848;2023-02-02T14:19:05;99652.00;;;10.32;47.03
41947;BME280;27638;42.184;24.848;2023-02-02T14:24:02;99641.78;;;10.45;47.02
41947;BME280;27638;42.184;24.848;2023-02-02T14:26:48;99647.75;;;10.64;46.12
41947;BME280;27638;42.184;24.848;2023-02-02T14:42:58;99665.47;;;10.87;44.40
41947;BME280;27638;42.184;24.848;2023-02-02T14:45:48;99677.22;;;10.77;46.02
41947;BME280;27638;42.184;24.848;2023-02-02T14:48:33;99673.59;;;10.78;46.33
41947;BME280;27638;42.184;24.848;2023-02-02T14:51:00;99674.06;;;10.73;46.48
41947;BME280;27638;42.184;24.848;2023-02-02T14:53:36;99672.09;;;10.67;47.03
41947;BME280;27638;42.184;24.848;2023-02-02T14:56:12;99667.63;;;10.68;45.98
41947;BME280;27638;42.184;24.848;2023-02-02T15:06:33;99673.88;;;10.50;48.22
41947;BME280;27638;42.184;24.848;2023-02-02T15:14:44;99674.69;;;10.43;49.04
41947;BME280;27638;42.184;24.848;2023-02-02T15:22:34;99679.31;;;10.41;49.74
41947;BME280;27638;42.184;24.848;2023-02-02T15:27:59;99683.16;;;10.46;49.94
41947;BME280;27638;42.184;24.848;2023-02-02T15:30:29;99688.56;;;10.37;50.24
41947;BME280;27638;42.184;24.848;2023-02-02T15:33:02;99693.06;;;10.44;50.67
41947;BME280;27638;42.184;24.848;2023-02-02T15:35:30;99697.31;;;10.37;50.24
41947;BME280;27638;42.184;24.848;2023-02-02T15:37:59;99704.22;;;10.22;51.39
41947;BME280;27638;42.184;24.848;2023-02-02T15:40:27;99706.00;;;10.13;51.65
41947;BME280;27638;42.184;24.848;2023-02-02T15:43:07;99716.63;;;9.87;52.45
41947;BME280;27638;42.184;24.848;2023-02-02T15:48:06;99726.41;;;9.95;52.47
41947;BME280;27638;42.184;24.848;2023-02-02T15:50:32;99722.38;;;9.83;53.03